Terminal Aerodrome Forecast
Issued by NWS

Current Version | Previous Version | Text Only | Print | Product List | Glossary On
Versions: 1 2 3 4 5 6 7 8 9 10 11 12 13 14
000
FTUS42 KTAE 192320
TAFDHN
TAF
KDHN 192320Z 2000/2024 33006KT P6SM SKC
     FM200900 06003KT 4SM BR FEW002
     FM201400 10005KT P6SM SKC=

USA.gov is the U.S. government's official web portal to all federal, state and local government web resources and services.